EDT,Max TemperatureF,Mean TemperatureF,Min TemperatureF,Max Dew PointF,MeanDew PointF,Min DewpointF,Max Humidity, Mean Humidity, Min Humidity, Max Sea Level PressureIn, Mean Sea Level PressureIn, Min Sea Level PressureIn, Max VisibilityMiles, Mean VisibilityMiles, Min VisibilityMiles, Max Wind SpeedMPH, Mean Wind SpeedMPH, Max Gust SpeedMPH,PrecipitationIn, CloudCover, Events, WindDirDegrees
2011-10-1,54,52,50,49,46,37,88,80,57,30.08,29.93,29.80,10,8,2,26,20,34,0.06,8,Rain,357
2011-10-2,55,52,48,47,40,35,87,66,49,30.06,30.02,29.96,10,9,4,28,19,34,0.08,7,Rain,2
2011-10-3,57,55,53,54,50,45,89,82,67,30.15,30.06,29.99,10,8,2,20,13,28,0.04,8,Rain,348
2011-10-4,66,60,55,55,51,42,84,75,58,30.26,30.21,30.16,10,10,10,14,10,,0.00,3,,294
2011-10-5,66,58,51,58,51,43,83,74,65,30.30,30.26,30.23,10,9,5,6,4,,0.00,0,,223
2011-10-6,71,62,55,60,54,49,90,79,61,30.34,30.31,30.28,10,10,8,13,5,,0.00,0,,104
2011-10-7,70,64,57,61,55,51,87,77,64,30.42,30.37,30.32,10,8,4,8,5,,0.00,0,,129
2011-10-8,77,67,57,63,55,50,77,67,50,30.44,30.39,30.35,10,10,8,12,7,,0.00,0,,148
2011-10-9,73,65,57,59,55,51,84,67,51,30.43,30.37,30.31,10,10,6,10,7,,0.00,0,,137
2011-10-10,75,65,57,61,55,52,87,70,50,30.31,30.25,30.16,10,10,9,9,4,,0.00,1,,107
2011-10-11,78,68,60,57,53,48,75,60,36,30.15,30.08,30.01,10,10,10,12,7,,0.00,2,,149
2011-10-12,66,62,59,57,56,54,90,84,65,29.99,29.87,29.76,10,8,3,14,7,,0.03,7,Rain,129
2011-10-13,69,64,60,61,58,54,100,87,61,29.74,29.56,29.39,10,6,2,9,7,,0.03,8,Rain,99
2011-10-14,62,58,53,61,51,39,94,77,56,29.56,29.43,29.35,10,8,2,29,12,39,0.00,8,Rain-Thunderstorm,233
2011-10-15,59,54,50,46,42,36,82,66,51,29.85,29.64,29.55,10,10,5,34,23,45,0.00,6,Rain-Thunderstorm,245
2011-10-16,57,54,50,52,44,36,88,70,54,29.89,29.78,29.66,10,10,4,25,14,32,0.04,6,Rain,223
2011-10-17,62,54,46,43,35,27,80,53,26,29.82,29.78,29.72,10,10,10,24,14,33,0.00,2,,230
2011-10-18,55,52,50,45,40,34,83,64,52,29.88,29.81,29.75,10,10,6,18,9,,0.07,7,Rain,235
2011-10-19,61,56,51,57,53,48,100,91,83,29.70,29.37,29.11,10,6,2,22,11,38,1.30,8,Rain,64
2011-10-20,54,50,45,50,43,38,93,84,68,29.67,29.34,29.12,10,7,2,25,18,38,0.33,8,Rain,206
2011-10-21,50,46,44,43,42,40,93,85,71,30.10,29.93,29.70,10,8,3,21,15,26,0.45,8,Rain,237
2011-10-22,55,49,44,41,40,38,81,71,59,30.13,30.10,30.07,10,10,10,13,8,,0.00,5,,229
2011-10-23,64,54,43,41,39,37,80,61,41,30.09,30.03,29.98,10,10,10,12,8,,0.00,2,,174
2011-10-24,57,54,51,52,45,37,88,72,53,30.12,29.98,29.88,10,10,6,21,13,29,0.03,4,Rain,229
2011-10-25,66,54,43,40,38,36,76,54,34,30.19,30.07,29.86,10,10,10,16,8,24,0.00,2,,194
2011-10-26,64,58,50,54,50,39,100,83,41,29.86,29.80,29.76,10,6,2,24,12,33,0.34,8,Rain-Thunderstorm,338
2011-10-27,50,46,42,47,40,32,89,79,58,30.12,29.89,29.79,10,10,4,18,13,28,0.12,7,Rain,14
2011-10-28,48,44,39,39,35,32,89,73,56,30.24,30.17,30.13,10,9,7,9,6,,0.00,4,,150
2011-10-29,50,41,34,35,33,30,89,71,56,30.12,30.09,30.05,10,10,8,9,6,,0.00,2,,135
2011-10-30,53,44,35,38,34,31,89,70,46,30.26,30.20,30.13,10,8,4,10,7,,0.00,0,,172
2011-10-31,55,49,43,40,36,34,82,70,49,30.20,30.14,30.07,10,10,10,16,11,23,0.00,5,,165